createdAt,value
2023-04-15T00:00:59.486Z,96460.00
2023-04-15T00:03:28.594Z,96468.00
2023-04-15T00:05:57.236Z,96463.00
2023-04-15T00:08:25.556Z,96472.00
2023-04-15T00:10:55.173Z,96457.00
2023-04-15T00:13:23.598Z,96455.00
2023-04-15T00:15:52.157Z,96453.00
2023-04-15T00:18:20.328Z,96458.00
2023-04-15T00:20:48.720Z,96458.00
2023-04-15T00:23:16.890Z,96469.00
2023-04-15T00:25:45.497Z,96464.00
2023-04-15T00:28:15.048Z,96460.00
2023-04-15T00:30:44.505Z,96447.00
2023-04-15T00:33:14.683Z,96449.00
2023-04-15T00:35:43.063Z,96451.00
2023-04-15T00:38:11.458Z,96442.00
2023-04-15T00:40:40.073Z,96441.00
2023-04-15T00:43:08.382Z,96442.00
2023-04-15T00:45:38.341Z,96437.00
2023-04-15T00:48:07.299Z,96430.00
2023-04-15T00:50:35.478Z,96437.00
2023-04-15T00:53:03.689Z,96432.00
2023-04-15T00:55:31.850Z,96424.00
2023-04-15T00:58:00.008Z,96433.00
2023-04-15T01:00:29.024Z,96438.00
2023-04-15T01:02:58.661Z,96428.00
2023-04-15T01:05:27.633Z,96418.00
2023-04-15T01:07:56.687Z,96420.00
2023-04-15T01:10:24.924Z,96419.00
2023-04-15T01:12:53.375Z,96422.00
2023-04-15T01:15:22.624Z,96423.00
2023-04-15T01:17:51.615Z,96423.00
2023-04-15T01:20:22.098Z,96422.00
2023-04-15T01:22:50.928Z,96421.00
2023-04-15T01:25:23.567Z,96422.00
2023-04-15T01:27:53.949Z,96425.00
2023-04-15T01:30:22.344Z,96407.00
2023-04-15T01:32:50.571Z,96415.00
2023-04-15T01:35:21.212Z,96408.00
2023-04-15T01:37:50.257Z,96398.00
2023-04-15T01:40:18.992Z,96403.00
2023-04-15T01:42:47.489Z,96412.00
2023-04-15T01:45:18.518Z,96419.00
2023-04-15T01:47:46.796Z,96409.00
2023-04-15T01:50:15.242Z,96401.00
2023-04-15T01:52:43.488Z,96399.00
2023-04-15T01:55:13.192Z,96409.00
2023-04-15T01:57:42.191Z,96408.00
2023-04-15T02:00:11.662Z,96396.00
2023-04-15T02:02:44.881Z,96401.00
2023-04-15T02:05:13.197Z,96394.00
2023-04-15T02:07:41.595Z,96401.00
2023-04-15T02:10:11.705Z,96403.00
2023-04-15T02:12:40.578Z,96397.00
2023-04-15T02:15:10.455Z,96390.00
2023-04-15T02:17:38.911Z,96407.00
2023-04-15T02:20:10.681Z,96393.00
2023-04-15T02:22:38.949Z,96402.00
2023-04-15T02:25:09.299Z,96400.00
2023-04-15T02:27:38.200Z,96394.00
2023-04-15T02:30:08.357Z,96395.00
2023-04-15T02:32:38.069Z,96399.00
2023-04-15T02:35:09.811Z,96407.00
2023-04-15T02:37:43.244Z,96412.00
2023-04-15T02:40:13.278Z,96408.00
2023-04-15T02:42:42.608Z,96421.00
2023-04-15T02:45:13.812Z,96410.00
2023-04-15T02:47:43.918Z,96412.00
2023-04-15T02:50:15.110Z,96399.00
2023-04-15T02:52:44.672Z,96401.00
2023-04-15T02:55:13.353Z,96389.00
2023-04-15T02:57:41.680Z,96401.00
2023-04-15T03:00:13.032Z,96395.00
2023-04-15T03:02:48.060Z,96388.00
2023-04-15T03:05:17.716Z,96395.00
2023-04-15T03:07:51.532Z,96396.00
2023-04-15T03:10:20.276Z,96396.00
2023-04-15T03:12:49.229Z,96388.00
2023-04-15T03:15:20.286Z,96390.00
2023-04-15T03:17:51.694Z,96395.00
2023-04-15T03:20:21.530Z,96393.00
2023-04-15T03:22:50.279Z,96395.00
2023-04-15T03:25:20.409Z,96393.00
2023-04-15T03:27:48.742Z,96391.00
2023-04-15T03:30:18.019Z,96387.00
2023-04-15T03:32:47.000Z,96403.00
2023-04-15T03:35:15.761Z,96392.00
2023-04-15T03:37:45.220Z,96389.00
2023-04-15T03:40:14.226Z,96393.00
2023-04-15T03:42:42.490Z,96392.00
2023-04-15T03:45:12.073Z,96391.00
2023-04-15T03:47:40.593Z,96402.00
2023-04-15T03:50:09.799Z,96394.00
2023-04-15T03:52:37.995Z,96395.00
2023-04-15T03:55:08.400Z,96384.00
2023-04-15T03:57:38.905Z,96400.00
2023-04-15T04:00:10.553Z,96381.00
2023-04-15T04:02:41.842Z,96392.00
2023-04-15T04:05:10.797Z,96389.00
2023-04-15T04:07:39.038Z,96408.00
2023-04-15T04:10:09.996Z,96404.00
2023-04-15T04:12:38.119Z,96390.00
2023-04-15T04:15:08.023Z,96392.00
2023-04-15T04:17:36.277Z,96397.00
2023-04-15T04:20:05.683Z,96404.00
2023-04-15T04:22:38.907Z,96399.00
2023-04-15T04:25:10.222Z,96397.00
2023-04-15T04:27:38.547Z,96402.00
2023-04-15T04:30:08.491Z,96396.00
2023-04-15T04:32:36.685Z,96397.00
2023-04-15T04:35:05.470Z,96416.00
2023-04-15T04:37:33.631Z,96415.00
2023-04-15T04:40:01.857Z,96401.00
2023-04-15T04:42:31.446Z,96413.00
2023-04-15T04:44:59.662Z,96402.00
2023-04-15T04:47:27.904Z,96415.00
2023-04-15T04:49:56.095Z,96411.00
2023-04-15T04:52:24.252Z,96402.00
2023-04-15T04:54:52.419Z,96406.00
2023-04-15T04:57:20.816Z,96408.00
2023-04-15T04:59:50.393Z,96402.00
2023-04-15T05:02:18.706Z,96408.00
2023-04-15T05:04:47.015Z,96417.00
2023-04-15T05:07:15.881Z,96410.00
2023-04-15T05:09:44.049Z,96415.00
2023-04-15T05:12:15.022Z,96417.00
2023-04-15T05:14:43.413Z,96410.00
2023-04-15T05:17:12.870Z,96411.00
2023-04-15T05:19:41.125Z,96404.00
2023-04-15T05:22:09.451Z,96424.00
2023-04-15T05:24:37.618Z,96408.00
2023-04-15T05:27:06.020Z,96416.00
2023-04-15T05:29:34.290Z,96420.00
2023-04-15T05:32:02.508Z,96432.00
2023-04-15T05:34:32.070Z,96433.00
2023-04-15T05:37:00.647Z,96425.00
2023-04-15T05:39:28.845Z,96423.00
2023-04-15T05:41:57.667Z,96432.00
2023-04-15T05:44:25.932Z,96427.00
2023-04-15T05:46:54.477Z,96431.00
2023-04-15T05:49:22.655Z,96433.00
2023-04-15T05:51:52.207Z,96433.00
2023-04-15T05:54:21.941Z,96436.00
2023-04-15T05:56:50.486Z,96441.00
2023-04-15T05:59:18.789Z,96435.00
2023-04-15T06:01:47.144Z,96447.00
2023-04-15T06:04:15.401Z,96447.00
2023-04-15T06:06:43.688Z,96445.00
2023-04-15T06:09:13.250Z,96436.00
2023-04-15T06:11:41.980Z,96432.00
2023-04-15T06:14:10.174Z,96456.00
2023-04-15T06:16:38.521Z,96448.00
2023-04-15T06:19:06.875Z,96440.00
2023-04-15T06:21:35.320Z,96434.00
2023-04-15T06:24:03.852Z,96439.00
2023-04-15T06:26:33.447Z,96446.00
2023-04-15T06:29:02.140Z,96443.00
2023-04-15T06:31:31.040Z,96442.00
2023-04-15T06:33:59.209Z,96442.00
2023-04-15T06:36:27.904Z,96447.00
2023-04-15T06:38:56.522Z,96443.00
2023-04-15T06:41:24.906Z,96449.00
2023-04-15T06:43:54.493Z,96446.00
2023-04-15T06:46:23.039Z,96451.00
2023-04-15T06:48:52.493Z,96437.00
2023-04-15T06:51:20.682Z,96442.00
2023-04-15T06:53:48.841Z,96432.00
2023-04-15T06:56:17.020Z,96447.00
2023-04-15T06:58:45.152Z,96446.00
2023-04-15T07:01:15.262Z,96436.00
2023-04-15T07:03:43.496Z,96447.00
2023-04-15T07:06:11.856Z,96454.00
2023-04-15T07:08:40.080Z,96442.00
2023-04-15T07:11:08.989Z,96457.00
2023-04-15T07:13:37.346Z,96443.00
2023-04-15T07:16:06.507Z,96455.00
2023-04-15T07:18:36.209Z,96443.00
2023-04-15T07:21:04.646Z,96439.00
2023-04-15T07:23:32.818Z,96451.00
2023-04-15T07:26:01.458Z,96440.00
2023-04-15T07:28:29.798Z,96462.00
2023-04-15T07:30:58.187Z,96456.00
2023-04-15T07:33:26.472Z,96463.00
2023-04-15T07:35:56.514Z,96453.00
2023-04-15T07:38:24.656Z,96451.00
2023-04-15T07:40:52.921Z,96446.00
2023-04-15T07:43:21.334Z,96444.00
2023-04-15T07:45:49.569Z,96448.00
2023-04-15T07:48:17.761Z,96452.00
2023-04-15T07:50:45.988Z,96451.00
2023-04-15T07:53:15.553Z,96438.00
2023-04-15T07:55:43.691Z,96445.00
2023-04-15T07:58:11.865Z,96449.00
2023-04-15T08:00:40.272Z,96457.00
2023-04-15T08:03:08.778Z,96467.00
2023-04-15T08:05:37.102Z,96443.00
2023-04-15T08:08:05.359Z,96452.00
2023-04-15T08:10:35.024Z,96446.00
2023-04-15T08:13:03.260Z,96464.00
2023-04-15T08:15:32.894Z,96461.00
2023-04-15T08:18:01.764Z,96454.00
2023-04-15T08:20:29.983Z,96472.00
2023-04-15T08:22:58.227Z,96466.00
2023-04-15T08:25:27.207Z,96458.00
2023-04-15T08:27:58.587Z,96460.00
2023-04-15T08:30:26.971Z,96474.00
2023-04-15T08:32:55.251Z,96477.00
2023-04-15T08:35:23.505Z,96457.00
2023-04-15T08:37:51.724Z,96457.00
2023-04-15T08:40:20.376Z,96461.00
2023-04-15T08:42:54.675Z,96458.00
2023-04-15T08:45:24.994Z,96462.00
2023-04-15T08:47:58.471Z,96461.00
2023-04-15T08:50:29.130Z,96469.00
2023-04-15T08:53:00.476Z,96470.00
2023-04-15T08:55:35.823Z,96476.00
2023-04-15T08:58:04.549Z,96489.00
2023-04-15T09:00:34.435Z,96478.00
2023-04-15T09:03:03.801Z,96486.00
2023-04-15T09:05:34.472Z,96488.00
2023-04-15T09:08:03.354Z,96487.00
2023-04-15T09:10:32.383Z,96488.00
2023-04-15T09:13:01.068Z,96490.00
2023-04-15T09:15:30.282Z,96480.00
2023-04-15T09:17:59.848Z,96490.00
2023-04-15T09:20:28.288Z,96491.00
2023-04-15T09:22:56.764Z,96487.00
2023-04-15T09:25:32.153Z,96486.00
2023-04-15T09:28:04.082Z,96508.00
2023-04-15T09:30:32.324Z,96489.00
2023-04-15T09:33:04.954Z,96495.00
2023-04-15T09:35:33.209Z,96498.00
2023-04-15T09:38:07.422Z,96502.00
2023-04-15T09:40:37.778Z,96499.00
2023-04-15T09:43:07.538Z,96506.00
2023-04-15T09:45:37.526Z,96511.00
2023-04-15T09:48:20.918Z,96511.00
2023-04-15T09:50:50.295Z,96519.00
2023-04-15T09:53:20.272Z,96524.00
2023-04-15T09:55:54.765Z,96518.00
2023-04-15T09:58:24.844Z,96517.00
2023-04-15T10:00:55.343Z,96526.00
2023-04-15T10:03:27.691Z,96530.00
2023-04-15T10:05:57.757Z,96522.00
2023-04-15T10:08:28.965Z,96523.00
2023-04-15T10:10:57.718Z,96535.00
2023-04-15T10:13:28.777Z,96537.00
2023-04-15T10:16:00.524Z,96536.00
2023-04-15T10:18:35.661Z,96536.00
2023-04-15T10:21:04.226Z,96541.00
2023-04-15T10:23:33.671Z,96544.00
2023-04-15T10:26:02.195Z,96529.00
2023-04-15T10:28:30.582Z,96542.00
2023-04-15T10:31:00.379Z,96539.00
2023-04-15T10:33:31.825Z,96552.00
2023-04-15T10:36:01.246Z,96549.00
2023-04-15T10:38:38.167Z,96553.00
2023-04-15T10:41:21.407Z,96534.00
2023-04-15T10:43:52.786Z,96531.00
2023-04-15T10:46:25.717Z,96543.00
2023-04-15T10:48:55.534Z,96553.00
2023-04-15T10:51:32.709Z,96547.00
2023-04-15T10:54:02.123Z,96537.00
2023-04-15T10:56:31.716Z,96528.00
2023-04-15T10:59:02.347Z,96532.00
2023-04-15T11:01:57.196Z,96534.00
2023-04-15T11:04:57.385Z,96533.00
2023-04-15T11:07:36.838Z,96545.00
2023-04-15T11:10:07.166Z,96554.00
2023-04-15T11:12:36.983Z,96543.00
2023-04-15T11:15:31.303Z,96562.00
2023-04-15T11:18:01.394Z,96552.00
2023-04-15T11:20:33.123Z,96553.00
2023-04-15T11:23:14.655Z,96566.00
2023-04-15T11:25:47.496Z,96545.00
2023-04-15T11:28:16.058Z,96552.00
2023-04-15T11:30:44.616Z,96555.00
2023-04-15T11:33:14.152Z,96562.00
2023-04-15T11:35:44.051Z,96574.00
2023-04-15T11:38:15.397Z,96570.00
2023-04-15T11:40:47.006Z,96573.00
2023-04-15T11:43:18.631Z,96573.00
2023-04-15T11:45:53.245Z,96567.00
2023-04-15T11:48:24.002Z,96574.00
2023-04-15T11:50:58.737Z,96584.00
2023-04-15T11:53:39.167Z,96594.00
2023-04-15T11:56:09.802Z,96585.00
2023-04-15T11:58:39.851Z,96577.00
2023-04-15T12:01:08.432Z,96570.00
2023-04-15T12:03:42.464Z,96576.00
2023-04-15T12:06:19.629Z,96587.00
2023-04-15T12:09:00.209Z,96581.00
2023-04-15T12:11:37.920Z,96577.00
2023-04-15T12:14:10.705Z,96582.00
2023-04-15T12:16:48.747Z,96600.00
2023-04-15T12:19:24.484Z,96582.00
2023-04-15T12:22:00.671Z,96586.00
2023-04-15T12:24:33.079Z,96598.00
2023-04-15T12:27:05.513Z,96597.00
2023-04-15T12:29:36.239Z,96597.00
2023-04-15T12:32:08.944Z,96609.00
2023-04-15T12:34:39.332Z,96614.00
2023-04-15T12:37:11.286Z,96616.00
2023-04-15T12:39:42.565Z,96614.00
2023-04-15T12:42:12.014Z,96616.00
2023-04-15T12:44:41.179Z,96629.00
2023-04-15T12:47:11.379Z,96635.00
2023-04-15T12:49:40.151Z,96619.00
2023-04-15T12:52:09.897Z,96634.00
2023-04-15T12:54:38.214Z,96630.00
2023-04-15T12:57:07.590Z,96632.00
2023-04-15T12:59:36.453Z,96627.00
2023-04-15T13:02:06.259Z,96626.00
2023-04-15T13:04:34.837Z,96640.00
2023-04-15T13:07:03.940Z,96640.00
2023-04-15T13:09:33.518Z,96634.00
2023-04-15T13:12:04.472Z,96636.00
2023-04-15T13:14:32.825Z,96637.00
2023-04-15T13:17:01.476Z,96639.00
2023-04-15T13:19:29.660Z,96645.00
2023-04-15T13:21:57.869Z,96634.00
2023-04-15T13:24:26.116Z,96635.00
2023-04-15T13:26:58.955Z,96647.00
2023-04-15T13:29:27.599Z,96653.00
2023-04-15T13:31:56.105Z,96655.00
2023-04-15T13:34:24.418Z,96659.00
2023-04-15T13:36:52.671Z,96659.00
2023-04-15T13:39:21.047Z,96663.00
2023-04-15T13:41:49.242Z,96657.00
2023-04-15T13:44:20.329Z,96662.00
2023-04-15T13:46:49.923Z,96679.00
2023-04-15T13:49:18.157Z,96661.00
2023-04-15T13:51:46.493Z,96666.00
2023-04-15T13:54:14.822Z,96673.00
2023-04-15T13:56:43.001Z,96668.00
2023-04-15T13:59:11.224Z,96669.00
2023-04-15T14:01:41.369Z,96678.00
2023-04-15T14:04:10.177Z,96680.00
2023-04-15T14:06:38.643Z,96677.00
2023-04-15T14:09:07.051Z,96682.00
2023-04-15T14:11:36.737Z,96674.00
2023-04-15T14:14:05.119Z,96691.00
2023-04-15T14:16:34.546Z,96685.00
2023-04-15T14:19:04.661Z,96687.00
2023-04-15T14:21:33.660Z,96692.00
2023-04-15T14:24:01.974Z,96687.00
2023-04-15T14:26:30.303Z,96713.00
2023-04-15T14:28:58.520Z,96698.00
2023-04-15T14:31:26.754Z,96703.00
2023-04-15T14:33:55.352Z,96710.00
2023-04-15T14:36:25.029Z,96723.00
2023-04-15T14:38:53.252Z,96734.00
2023-04-15T14:41:22.369Z,96716.00
2023-04-15T14:43:50.694Z,96725.00
2023-04-15T14:46:19.068Z,96734.00
2023-04-15T14:48:47.500Z,96720.00
2023-04-15T14:51:16.163Z,96728.00
2023-04-15T14:53:46.612Z,96739.00
2023-04-15T14:56:14.976Z,96728.00
2023-04-15T14:58:43.278Z,96744.00
2023-04-15T15:01:11.733Z,96743.00
2023-04-15T15:03:41.084Z,96745.00
2023-04-15T15:06:09.395Z,96761.00
2023-04-15T15:08:37.802Z,96759.00
2023-04-15T15:11:07.411Z,96765.00
2023-04-15T15:13:35.982Z,96757.00
2023-04-15T15:16:04.290Z,96763.00
2023-04-15T15:18:32.721Z,96762.00
2023-04-15T15:21:00.969Z,96772.00
2023-04-15T15:23:29.181Z,96785.00
2023-04-15T15:25:58.185Z,96776.00
2023-04-15T15:28:28.388Z,96775.00
2023-04-15T15:30:56.549Z,96775.00
2023-04-15T15:33:24.831Z,96789.00
2023-04-15T15:35:53.407Z,96776.00
2023-04-15T15:38:21.564Z,96787.00
2023-04-15T15:40:49.703Z,96795.00
2023-04-15T15:43:18.154Z,96801.00
2023-04-15T15:45:48.048Z,96797.00
2023-04-15T15:48:16.397Z,96806.00
2023-04-15T15:50:45.346Z,96798.00
2023-04-15T15:53:17.883Z,96809.00
2023-04-15T15:55:46.260Z,96811.00
2023-04-15T15:58:14.418Z,96798.00
2023-04-15T16:00:42.960Z,96796.00
2023-04-15T16:03:12.575Z,96815.00
2023-04-15T16:05:40.837Z,96826.00
2023-04-15T16:08:09.129Z,96820.00
2023-04-15T16:10:38.672Z,96823.00
2023-04-15T16:13:06.927Z,96825.00
2023-04-15T16:15:35.252Z,96828.00
2023-04-15T16:18:03.501Z,96837.00
2023-04-15T16:20:33.125Z,96828.00
2023-04-15T16:23:04.889Z,96829.00
2023-04-15T16:25:33.041Z,96842.00
2023-04-15T16:28:11.393Z,96834.00
2023-04-15T16:30:43.689Z,96845.00
2023-04-15T16:33:11.948Z,96842.00
2023-04-15T16:35:41.707Z,96845.00
2023-04-15T16:38:09.957Z,96851.00
2023-04-15T16:40:38.899Z,96856.00
2023-04-15T16:43:11.080Z,96850.00
2023-04-15T16:45:39.552Z,96866.00
2023-04-15T16:48:08.341Z,96861.00
2023-04-15T16:50:38.007Z,96858.00
2023-04-15T16:53:07.582Z,96865.00
2023-04-15T16:55:35.879Z,96872.00
2023-04-15T16:58:05.467Z,96878.00
2023-04-15T17:00:36.546Z,96880.00
2023-04-15T17:03:06.325Z,96884.00
2023-04-15T17:05:34.719Z,96884.00
2023-04-15T17:08:02.928Z,96888.00
2023-04-15T17:10:32.702Z,96881.00
2023-04-15T17:13:01.075Z,96895.00
2023-04-15T17:15:29.261Z,96900.00
2023-04-15T17:17:57.515Z,96902.00
2023-04-15T17:20:26.428Z,96897.00
2023-04-15T17:22:54.630Z,96907.00
2023-04-15T17:25:24.166Z,96910.00
2023-04-15T17:27:53.702Z,96921.00
2023-04-15T17:30:22.243Z,96923.00
2023-04-15T17:32:52.239Z,96923.00
2023-04-15T17:35:20.746Z,96911.00
2023-04-15T17:37:48.922Z,96914.00
2023-04-15T17:40:17.096Z,96930.00
2023-04-15T17:42:45.285Z,96922.00
2023-04-15T17:45:16.263Z,96926.00
2023-04-15T17:47:44.774Z,96932.00
2023-04-15T17:50:13.114Z,96932.00
2023-04-15T17:52:41.411Z,96939.00
2023-04-15T17:55:10.320Z,96942.00
2023-04-15T17:57:38.586Z,96947.00
2023-04-15T18:00:10.613Z,96946.00
2023-04-15T18:02:43.443Z,96944.00
2023-04-15T18:05:20.263Z,96952.00
2023-04-15T18:07:49.013Z,96953.00
2023-04-15T18:10:17.320Z,96946.00
2023-04-15T18:12:45.915Z,96960.00
2023-04-15T18:15:14.505Z,96957.00
2023-04-15T18:17:44.308Z,96964.00
2023-04-15T18:20:13.363Z,96966.00
2023-04-15T18:22:41.692Z,96965.00
2023-04-15T18:25:10.866Z,96972.00
2023-04-15T18:27:40.055Z,96984.00
2023-04-15T18:30:10.645Z,96987.00
2023-04-15T18:32:39.522Z,96983.00
2023-04-15T18:35:10.342Z,96988.00
2023-04-15T18:37:38.683Z,96984.00
2023-04-15T18:40:10.110Z,96983.00
2023-04-15T18:42:38.460Z,97003.00
2023-04-15T18:45:08.010Z,97007.00
2023-04-15T18:47:39.150Z,97017.00
2023-04-15T18:50:10.087Z,97001.00
2023-04-15T18:52:38.308Z,97021.00
2023-04-15T18:55:07.730Z,97021.00
2023-04-15T18:57:37.564Z,97033.00
2023-04-15T19:00:07.636Z,97023.00
2023-04-15T19:02:35.937Z,97028.00
2023-04-15T19:05:04.920Z,97038.00
2023-04-15T19:07:34.896Z,97030.00
2023-04-15T19:10:04.518Z,97040.00
2023-04-15T19:12:32.902Z,97042.00
2023-04-15T19:15:01.178Z,97041.00
2023-04-15T19:17:29.462Z,97049.00
2023-04-15T19:19:57.732Z,97050.00
2023-04-15T19:22:26.140Z,97045.00
2023-04-15T19:24:55.839Z,97052.00
2023-04-15T19:27:24.947Z,97058.00
2023-04-15T19:29:53.190Z,97072.00
2023-04-15T19:32:21.449Z,97066.00
2023-04-15T19:34:49.951Z,97067.00
2023-04-15T19:37:18.719Z,97059.00
2023-04-15T19:39:46.995Z,97071.00
2023-04-15T19:42:17.102Z,97068.00
2023-04-15T19:44:45.388Z,97067.00
2023-04-15T19:47:13.703Z,97071.00
2023-04-15T19:49:42.248Z,97070.00
2023-04-15T19:52:10.537Z,97080.00
2023-04-15T19:54:38.762Z,97084.00
2023-04-15T19:57:07.050Z,97079.00
2023-04-15T19:59:37.723Z,97075.00
2023-04-15T20:02:06.286Z,97079.00
2023-04-15T20:04:34.723Z,97093.00
2023-04-15T20:07:03.037Z,97082.00
2023-04-15T20:09:31.198Z,97102.00
2023-04-15T20:12:46.094Z,97070.00
2023-04-15T20:14:48.935Z,97089.00
2023-04-15T20:17:17.220Z,97091.00
2023-04-15T20:19:45.569Z,97091.00
2023-04-15T20:22:14.859Z,97094.00
2023-04-15T20:24:43.113Z,97098.00
2023-04-15T20:27:11.335Z,97101.00
2023-04-15T20:29:39.508Z,97093.00
2023-04-15T20:32:11.375Z,97098.00
2023-04-15T20:34:41.143Z,97105.00
2023-04-15T20:37:09.625Z,97098.00
2023-04-15T20:39:37.996Z,97105.00
2023-04-15T20:42:10.042Z,97100.00
2023-04-15T20:44:38.565Z,97090.00
2023-04-15T20:47:08.627Z,97113.00
2023-04-15T20:49:38.247Z,97112.00
2023-04-15T20:52:08.368Z,97117.00
2023-04-15T20:54:36.756Z,97117.00
2023-04-15T20:57:05.098Z,97114.00
2023-04-15T20:59:34.695Z,97121.00
2023-04-15T21:02:03.124Z,97140.00
2023-04-15T21:04:32.817Z,97121.00
2023-04-15T21:07:01.051Z,97118.00
2023-04-15T21:09:29.278Z,97127.00
2023-04-15T21:12:01.446Z,97136.00
2023-04-15T21:14:30.116Z,97136.00
2023-04-15T21:16:58.976Z,97134.00
2023-04-15T21:19:27.265Z,97133.00
2023-04-15T21:21:56.833Z,97138.00
2023-04-15T21:24:25.075Z,97135.00
2023-04-15T21:26:53.386Z,97143.00
2023-04-15T21:29:21.577Z,97133.00
2023-04-15T21:31:49.835Z,97149.00
2023-04-15T21:34:18.774Z,97146.00
2023-04-15T21:36:46.941Z,97159.00
2023-04-15T21:39:17.060Z,97151.00
2023-04-15T21:41:45.309Z,97161.00
2023-04-15T21:44:14.804Z,97163.00
2023-04-15T21:46:46.111Z,97152.00
2023-04-15T21:49:14.702Z,97167.00
2023-04-15T21:51:43.075Z,97154.00
2023-04-15T21:54:11.287Z,97156.00
2023-04-15T21:56:42.278Z,97157.00
2023-04-15T21:59:10.610Z,97171.00
2023-04-15T22:01:38.867Z,97162.00
2023-04-15T22:04:07.509Z,97161.00
2023-04-15T22:06:36.031Z,97156.00
2023-04-15T22:09:04.610Z,97162.00
2023-04-15T22:11:32.941Z,97181.00
2023-04-15T22:14:02.589Z,97190.00
2023-04-15T22:16:30.862Z,97177.00
2023-04-15T22:18:59.071Z,97187.00
2023-04-15T22:21:27.781Z,97184.00
2023-04-15T22:24:32.521Z,97181.00
2023-04-15T22:26:47.384Z,97180.00
2023-04-15T22:29:17.093Z,97186.00
2023-04-15T22:31:45.811Z,97188.00
2023-04-15T22:34:20.368Z,97185.00
2023-04-15T22:36:48.922Z,97200.00
2023-04-15T22:39:17.711Z,97199.00
2023-04-15T22:41:46.326Z,97202.00
2023-04-15T22:44:15.796Z,97210.00
2023-04-15T22:46:44.172Z,97217.00
2023-04-15T22:49:12.467Z,97216.00
2023-04-15T22:51:40.652Z,97208.00
2023-04-15T22:54:08.852Z,97215.00
2023-04-15T22:56:37.158Z,97210.00
2023-04-15T22:59:05.481Z,97216.00
2023-04-15T23:01:34.999Z,97220.00
2023-04-15T23:04:08.292Z,97213.00
2023-04-15T23:06:52.341Z,97221.00
2023-04-15T23:09:20.925Z,97212.00
2023-04-15T23:11:49.259Z,97214.00
2023-04-15T23:14:17.583Z,97220.00
2023-04-15T23:16:47.068Z,97223.00
2023-04-15T23:19:15.755Z,97227.00
2023-04-15T23:21:44.180Z,97219.00
2023-04-15T23:24:13.182Z,97227.00
2023-04-15T23:26:41.401Z,97224.00
2023-04-15T23:29:10.275Z,97243.00
2023-04-15T23:31:38.780Z,97233.00
2023-04-15T23:34:08.769Z,97232.00
2023-04-15T23:36:37.033Z,97229.00
2023-04-15T23:39:05.376Z,97239.00
2023-04-15T23:41:33.609Z,97231.00
2023-04-15T23:44:01.860Z,97239.00
2023-04-15T23:46:30.024Z,97238.00
2023-04-15T23:48:58.269Z,97234.00
2023-04-15T23:51:27.796Z,97231.00
2023-04-15T23:53:56.120Z,97235.00
2023-04-15T23:56:24.318Z,97249.00
2023-04-15T23:58:52.463Z,97245.00
